sensor_id;sensor_type;location;lat;lon;timestamp;temperature;humidity
10905;DHT22;5505;51.450;9.254;2023-06-14T00:01:23;14.30;99.90
10905;DHT22;5505;51.450;9.254;2023-06-14T00:04:11;14.20;99.90
10905;DHT22;5505;51.450;9.254;2023-06-14T00:07:00;14.30;99.90
10905;DHT22;5505;51.450;9.254;2023-06-14T00:09:47;14.10;99.90
10905;DHT22;5505;51.450;9.254;2023-06-14T00:12:34;14.10;99.90
10905;DHT22;5505;51.450;9.254;2023-06-14T00:15:22;14.10;99.90
10905;DHT22;5505;51.450;9.254;2023-06-14T00:18:09;14.00;99.90
10905;DHT22;5505;51.450;9.254;2023-06-14T00:20:57;14.00;99.90
10905;DHT22;5505;51.450;9.254;2023-06-14T00:23:46;14.00;99.90
10905;DHT22;5505;51.450;9.254;2023-06-14T00:26:33;14.00;99.90
10905;DHT22;5505;51.450;9.254;2023-06-14T00:29:20;14.00;99.90
10905;DHT22;5505;51.450;9.254;2023-06-14T00:32:08;13.70;99.90
10905;DHT22;5505;51.450;9.254;2023-06-14T00:34:55;13.70;99.90
10905;DHT22;5505;51.450;9.254;2023-06-14T00:37:42;13.60;99.90
10905;DHT22;5505;51.450;9.254;2023-06-14T00:40:30;13.60;99.90
10905;DHT22;5505;51.450;9.254;2023-06-14T00:43:18;13.50;99.90
10905;DHT22;5505;51.450;9.254;2023-06-14T00:46:05;13.50;99.90
10905;DHT22;5505;51.450;9.254;2023-06-14T00:48:52;13.40;99.90
10905;DHT22;5505;51.450;9.254;2023-06-14T00:51:39;13.40;99.90
10905;DHT22;5505;51.450;9.254;2023-06-14T00:54:27;13.40;99.90
10905;DHT22;5505;51.450;9.254;2023-06-14T00:57:15;13.40;99.90
10905;DHT22;5505;51.450;9.254;2023-06-14T01:00:04;13.30;99.90
10905;DHT22;5505;51.450;9.254;2023-06-14T01:02:54;13.20;99.90
10905;DHT22;5505;51.450;9.254;2023-06-14T01:05:42;13.20;99.90
10905;DHT22;5505;51.450;9.254;2023-06-14T01:08:37;13.00;99.90
10905;DHT22;5505;51.450;9.254;2023-06-14T01:11:31;12.90;99.90
10905;DHT22;5505;51.450;9.254;2023-06-14T01:14:21;12.90;99.90
10905;DHT22;5505;51.450;9.254;2023-06-14T01:17:08;12.80;99.90
10905;DHT22;5505;51.450;9.254;2023-06-14T01:20:01;12.70;99.90
10905;DHT22;5505;51.450;9.254;2023-06-14T01:22:52;12.70;99.90
10905;DHT22;5505;51.450;9.254;2023-06-14T01:25:39;13.70;99.90
10905;DHT22;5505;51.450;9.254;2023-06-14T01:28:31;12.70;99.90
10905;DHT22;5505;51.450;9.254;2023-06-14T01:31:20;12.60;99.90
10905;DHT22;5505;51.450;9.254;2023-06-14T01:34:08;12.60;99.90
10905;DHT22;5505;51.450;9.254;2023-06-14T01:36:56;12.60;99.90
10905;DHT22;5505;51.450;9.254;2023-06-14T01:39:45;12.50;99.90
10905;DHT22;5505;51.450;9.254;2023-06-14T01:42:33;12.50;99.90
10905;DHT22;5505;51.450;9.254;2023-06-14T01:45:22;12.40;99.90
10905;DHT22;5505;51.450;9.254;2023-06-14T01:48:09;12.30;99.90
10905;DHT22;5505;51.450;9.254;2023-06-14T01:50:56;12.20;99.90
10905;DHT22;5505;51.450;9.254;2023-06-14T01:53:43;12.70;99.90
10905;DHT22;5505;51.450;9.254;2023-06-14T01:56:32;12.00;99.90
10905;DHT22;5505;51.450;9.254;2023-06-14T01:59:19;12.00;99.90
10905;DHT22;5505;51.450;9.254;2023-06-14T02:02:06;12.40;99.90
10905;DHT22;5505;51.450;9.254;2023-06-14T02:04:53;11.90;99.90
10905;DHT22;5505;51.450;9.254;2023-06-14T02:07:43;11.90;99.90
10905;DHT22;5505;51.450;9.254;2023-06-14T02:10:30;11.90;99.90
10905;DHT22;5505;51.450;9.254;2023-06-14T02:13:18;11.80;99.90
10905;DHT22;5505;51.450;9.254;2023-06-14T02:16:05;11.70;99.90
10905;DHT22;5505;51.450;9.254;2023-06-14T02:18:52;11.70;99.90
10905;DHT22;5505;51.450;9.254;2023-06-14T02:21:39;12.20;99.90
10905;DHT22;5505;51.450;9.254;2023-06-14T02:24:27;11.60;99.90
10905;DHT22;5505;51.450;9.254;2023-06-14T02:27:14;11.50;99.90
10905;DHT22;5505;51.450;9.254;2023-06-14T02:30:03;11.50;99.90
10905;DHT22;5505;51.450;9.254;2023-06-14T02:32:50;11.40;99.90
10905;DHT22;5505;51.450;9.254;2023-06-14T02:35:39;11.30;99.90
10905;DHT22;5505;51.450;9.254;2023-06-14T02:38:26;11.20;99.90
10905;DHT22;5505;51.450;9.254;2023-06-14T02:41:13;11.20;99.90
10905;DHT22;5505;51.450;9.254;2023-06-14T02:44:00;11.20;99.90
10905;DHT22;5505;51.450;9.254;2023-06-14T02:46:48;11.20;99.90
10905;DHT22;5505;51.450;9.254;2023-06-14T02:49:35;11.10;99.90
10905;DHT22;5505;51.450;9.254;2023-06-14T02:52:22;11.10;99.90
10905;DHT22;5505;51.450;9.254;2023-06-14T02:55:10;11.00;99.90
10905;DHT22;5505;51.450;9.254;2023-06-14T02:57:58;11.00;99.90
10905;DHT22;5505;51.450;9.254;2023-06-14T03:00:45;10.90;99.90
10905;DHT22;5505;51.450;9.254;2023-06-14T03:03:33;10.90;99.90
10905;DHT22;5505;51.450;9.254;2023-06-14T03:06:20;10.80;99.90
10905;DHT22;5505;51.450;9.254;2023-06-14T03:09:11;10.70;99.90
10905;DHT22;5505;51.450;9.254;2023-06-14T03:11:58;10.70;99.90
10905;DHT22;5505;51.450;9.254;2023-06-14T03:14:46;10.60;99.90
10905;DHT22;5505;51.450;9.254;2023-06-14T03:17:33;10.80;99.90
10905;DHT22;5505;51.450;9.254;2023-06-14T03:20:22;10.70;99.90
10905;DHT22;5505;51.450;9.254;2023-06-14T03:23:09;11.90;99.90
10905;DHT22;5505;51.450;9.254;2023-06-14T03:25:57;9.10;99.90
10905;DHT22;5505;51.450;9.254;2023-06-14T03:28:44;10.60;99.90
10905;DHT22;5505;51.450;9.254;2023-06-14T03:31:32;10.60;99.90
10905;DHT22;5505;51.450;9.254;2023-06-14T03:34:19;10.50;99.90
10905;DHT22;5505;51.450;9.254;2023-06-14T03:37:08;10.70;99.90
10905;DHT22;5505;51.450;9.254;2023-06-14T03:39:55;10.50;99.90
10905;DHT22;5505;51.450;9.254;2023-06-14T03:42:42;10.60;99.90
10905;DHT22;5505;51.450;9.254;2023-06-14T03:45:29;10.50;99.90
10905;DHT22;5505;51.450;9.254;2023-06-14T03:48:16;10.30;99.90
10905;DHT22;5505;51.450;9.254;2023-06-14T03:51:03;10.20;99.90
10905;DHT22;5505;51.450;9.254;2023-06-14T03:53:52;10.10;99.90
10905;DHT22;5505;51.450;9.254;2023-06-14T03:56:40;11.30;99.90
10905;DHT22;5505;51.450;9.254;2023-06-14T03:59:27;10.10;99.90
10905;DHT22;5505;51.450;9.254;2023-06-14T04:02:14;10.20;99.90
10905;DHT22;5505;51.450;9.254;2023-06-14T04:05:02;10.80;99.90
10905;DHT22;5505;51.450;9.254;2023-06-14T04:07:49;10.40;99.90
10905;DHT22;5505;51.450;9.254;2023-06-14T04:10:37;10.50;99.90
10905;DHT22;5505;51.450;9.254;2023-06-14T04:13:24;10.50;99.90
10905;DHT22;5505;51.450;9.254;2023-06-14T04:16:11;10.60;99.90
10905;DHT22;5505;51.450;9.254;2023-06-14T04:18:58;10.70;99.90
10905;DHT22;5505;51.450;9.254;2023-06-14T04:21:46;10.90;99.90
10905;DHT22;5505;51.450;9.254;2023-06-14T04:24:33;10.90;99.90
10905;DHT22;5505;51.450;9.254;2023-06-14T04:27:22;11.00;99.90
10905;DHT22;5505;51.450;9.254;2023-06-14T04:30:11;11.10;99.90
10905;DHT22;5505;51.450;9.254;2023-06-14T04:32:59;11.10;99.90
10905;DHT22;5505;51.450;9.254;2023-06-14T04:35:46;11.20;99.90
10905;DHT22;5505;51.450;9.254;2023-06-14T04:38:34;11.40;99.90
10905;DHT22;5505;51.450;9.254;2023-06-14T04:41:21;11.50;99.90
10905;DHT22;5505;51.450;9.254;2023-06-14T04:44:18;11.50;99.90
10905;DHT22;5505;51.450;9.254;2023-06-14T04:47:05;11.60;99.90
10905;DHT22;5505;51.450;9.254;2023-06-14T04:49:52;12.40;99.90
10905;DHT22;5505;51.450;9.254;2023-06-14T04:52:40;11.80;99.90
10905;DHT22;5505;51.450;9.254;2023-06-14T04:55:27;12.00;99.90
10905;DHT22;5505;51.450;9.254;2023-06-14T04:58:14;12.20;99.90
10905;DHT22;5505;51.450;9.254;2023-06-14T05:01:03;12.40;99.90
10905;DHT22;5505;51.450;9.254;2023-06-14T05:03:50;12.50;99.90
10905;DHT22;5505;51.450;9.254;2023-06-14T05:06:38;12.70;99.90
10905;DHT22;5505;51.450;9.254;2023-06-14T05:09:25;12.80;99.90
10905;DHT22;5505;51.450;9.254;2023-06-14T05:12:12;12.90;99.90
10905;DHT22;5505;51.450;9.254;2023-06-14T05:14:59;13.00;99.90
10905;DHT22;5505;51.450;9.254;2023-06-14T05:17:47;13.20;99.90
10905;DHT22;5505;51.450;9.254;2023-06-14T05:20:41;13.40;99.90
10905;DHT22;5505;51.450;9.254;2023-06-14T05:23:28;13.50;99.90
10905;DHT22;5505;51.450;9.254;2023-06-14T05:26:15;14.20;99.90
10905;DHT22;5505;51.450;9.254;2023-06-14T05:29:02;13.70;99.90
10905;DHT22;5505;51.450;9.254;2023-06-14T05:31:49;13.80;99.90
10905;DHT22;5505;51.450;9.254;2023-06-14T05:34:38;13.90;99.90
10905;DHT22;5505;51.450;9.254;2023-06-14T05:37:25;14.80;99.90
10905;DHT22;5505;51.450;9.254;2023-06-14T05:40:12;14.10;99.90
10905;DHT22;5505;51.450;9.254;2023-06-14T05:43:00;14.10;99.90
10905;DHT22;5505;51.450;9.254;2023-06-14T05:45:47;14.20;99.90
10905;DHT22;5505;51.450;9.254;2023-06-14T05:48:34;14.20;99.90
10905;DHT22;5505;51.450;9.254;2023-06-14T05:51:23;14.30;99.90
10905;DHT22;5505;51.450;9.254;2023-06-14T05:54:10;14.30;99.90
10905;DHT22;5505;51.450;9.254;2023-06-14T05:56:57;14.30;99.90
10905;DHT22;5505;51.450;9.254;2023-06-14T05:59:47;14.40;99.90
10905;DHT22;5505;51.450;9.254;2023-06-14T06:02:34;14.50;99.90
10905;DHT22;5505;51.450;9.254;2023-06-14T06:05:21;14.50;99.90
10905;DHT22;5505;51.450;9.254;2023-06-14T06:08:09;14.60;99.90
10905;DHT22;5505;51.450;9.254;2023-06-14T06:10:56;14.70;99.90
10905;DHT22;5505;51.450;9.254;2023-06-14T06:13:44;14.80;99.90
10905;DHT22;5505;51.450;9.254;2023-06-14T06:16:31;15.00;99.90
10905;DHT22;5505;51.450;9.254;2023-06-14T06:19:18;14.80;99.90
10905;DHT22;5505;51.450;9.254;2023-06-14T06:22:05;14.80;99.90
10905;DHT22;5505;51.450;9.254;2023-06-14T06:24:55;14.80;99.90
10905;DHT22;5505;51.450;9.254;2023-06-14T06:27:42;14.90;99.90
10905;DHT22;5505;51.450;9.254;2023-06-14T06:30:29;14.90;99.90
10905;DHT22;5505;51.450;9.254;2023-06-14T06:33:16;14.90;99.90
10905;DHT22;5505;51.450;9.254;2023-06-14T06:36:03;15.10;99.90
10905;DHT22;5505;51.450;9.254;2023-06-14T06:38:50;15.10;99.90
10905;DHT22;5505;51.450;9.254;2023-06-14T06:41:39;15.30;99.90
10905;DHT22;5505;51.450;9.254;2023-06-14T06:44:26;15.30;99.90
10905;DHT22;5505;51.450;9.254;2023-06-14T06:47:13;15.30;99.90
10905;DHT22;5505;51.450;9.254;2023-06-14T06:50:00;15.50;99.90
10905;DHT22;5505;51.450;9.254;2023-06-14T06:52:48;15.50;99.90
10905;DHT22;5505;51.450;9.254;2023-06-14T06:55:35;15.70;99.90
10905;DHT22;5505;51.450;9.254;2023-06-14T06:58:23;15.70;99.90
10905;DHT22;5505;51.450;9.254;2023-06-14T07:01:11;15.70;99.90
10905;DHT22;5505;51.450;9.254;2023-06-14T07:03:59;15.80;99.90
10905;DHT22;5505;51.450;9.254;2023-06-14T07:06:46;15.90;99.90
10905;DHT22;5505;51.450;9.254;2023-06-14T07:09:33;16.00;99.90
10905;DHT22;5505;51.450;9.254;2023-06-14T07:12:22;16.10;99.90
10905;DHT22;5505;51.450;9.254;2023-06-14T07:15:11;16.20;99.90
10905;DHT22;5505;51.450;9.254;2023-06-14T07:17:58;16.30;99.90
10905;DHT22;5505;51.450;9.254;2023-06-14T07:20:46;16.50;99.90
10905;DHT22;5505;51.450;9.254;2023-06-14T07:23:33;16.60;99.90
10905;DHT22;5505;51.450;9.254;2023-06-14T07:26:20;16.70;99.90
10905;DHT22;5505;51.450;9.254;2023-06-14T07:29:08;16.90;99.90
10905;DHT22;5505;51.450;9.254;2023-06-14T07:31:56;17.10;99.90
10905;DHT22;5505;51.450;9.254;2023-06-14T07:34:44;17.80;99.90
10905;DHT22;5505;51.450;9.254;2023-06-14T07:37:31;17.20;99.90
10905;DHT22;5505;51.450;9.254;2023-06-14T07:40:18;17.40;99.90
10905;DHT22;5505;51.450;9.254;2023-06-14T07:43:05;17.40;99.90
10905;DHT22;5505;51.450;9.254;2023-06-14T07:45:52;17.30;99.90
10905;DHT22;5505;51.450;9.254;2023-06-14T07:48:41;17.30;99.90
10905;DHT22;5505;51.450;9.254;2023-06-14T07:51:28;17.50;99.90
10905;DHT22;5505;51.450;9.254;2023-06-14T07:54:15;17.60;99.90
10905;DHT22;5505;51.450;9.254;2023-06-14T07:57:03;17.70;99.90
10905;DHT22;5505;51.450;9.254;2023-06-14T07:59:50;17.50;99.90
10905;DHT22;5505;51.450;9.254;2023-06-14T08:02:37;17.50;99.90
10905;DHT22;5505;51.450;9.254;2023-06-14T08:05:26;17.50;99.90
10905;DHT22;5505;51.450;9.254;2023-06-14T08:08:13;17.80;99.90
10905;DHT22;5505;51.450;9.254;2023-06-14T08:11:01;17.90;99.90
10905;DHT22;5505;51.450;9.254;2023-06-14T08:13:48;18.00;99.90
10905;DHT22;5505;51.450;9.254;2023-06-14T08:16:35;18.00;99.90
10905;DHT22;5505;51.450;9.254;2023-06-14T08:19:23;18.10;99.90
10905;DHT22;5505;51.450;9.254;2023-06-14T08:22:11;18.20;99.90
10905;DHT22;5505;51.450;9.254;2023-06-14T08:24:58;18.10;99.90
10905;DHT22;5505;51.450;9.254;2023-06-14T08:27:47;18.20;99.90
10905;DHT22;5505;51.450;9.254;2023-06-14T08:30:34;18.20;99.90
10905;DHT22;5505;51.450;9.254;2023-06-14T08:33:21;18.40;99.90
10905;DHT22;5505;51.450;9.254;2023-06-14T08:36:08;18.60;99.90
10905;DHT22;5505;51.450;9.254;2023-06-14T08:38:58;18.70;99.90
10905;DHT22;5505;51.450;9.254;2023-06-14T08:41:46;18.80;99.90
10905;DHT22;5505;51.450;9.254;2023-06-14T08:44:34;18.70;99.90
10905;DHT22;5505;51.450;9.254;2023-06-14T08:47:21;18.30;99.90
10905;DHT22;5505;51.450;9.254;2023-06-14T08:50:11;18.10;99.90
10905;DHT22;5505;51.450;9.254;2023-06-14T08:53:01;18.00;99.90
10905;DHT22;5505;51.450;9.254;2023-06-14T08:55:49;18.20;99.90
10905;DHT22;5505;51.450;9.254;2023-06-14T08:58:40;18.30;99.90
10905;DHT22;5505;51.450;9.254;2023-06-14T09:01:32;18.50;99.90
10905;DHT22;5505;51.450;9.254;2023-06-14T09:04:20;18.80;99.90
10905;DHT22;5505;51.450;9.254;2023-06-14T09:07:08;18.80;99.90
10905;DHT22;5505;51.450;9.254;2023-06-14T09:10:06;18.70;99.90
10905;DHT22;5505;51.450;9.254;2023-06-14T09:12:55;18.80;99.90
10905;DHT22;5505;51.450;9.254;2023-06-14T09:15:42;18.70;99.90
10905;DHT22;5505;51.450;9.254;2023-06-14T09:18:36;18.70;99.90
10905;DHT22;5505;51.450;9.254;2023-06-14T09:21:24;18.80;99.90
10905;DHT22;5505;51.450;9.254;2023-06-14T09:24:13;18.80;99.90
10905;DHT22;5505;51.450;9.254;2023-06-14T09:27:01;18.60;99.90
10905;DHT22;5505;51.450;9.254;2023-06-14T09:29:50;18.80;99.90
10905;DHT22;5505;51.450;9.254;2023-06-14T09:32:38;18.50;99.90
10905;DHT22;5505;51.450;9.254;2023-06-14T09:35:26;18.70;99.90
10905;DHT22;5505;51.450;9.254;2023-06-14T09:38:15;18.70;99.90
10905;DHT22;5505;51.450;9.254;2023-06-14T09:41:03;18.50;99.90
10905;DHT22;5505;51.450;9.254;2023-06-14T09:43:51;18.60;99.90
10905;DHT22;5505;51.450;9.254;2023-06-14T09:46:39;19.00;99.90
10905;DHT22;5505;51.450;9.254;2023-06-14T09:49:26;19.30;99.90
10905;DHT22;5505;51.450;9.254;2023-06-14T09:52:16;19.60;99.90
10905;DHT22;5505;51.450;9.254;2023-06-14T09:55:10;19.50;99.90
10905;DHT22;5505;51.450;9.254;2023-06-14T09:58:00;19.30;99.90
10905;DHT22;5505;51.450;9.254;2023-06-14T10:00:51;19.40;99.90
10905;DHT22;5505;51.450;9.254;2023-06-14T10:03:40;19.60;99.90
10905;DHT22;5505;51.450;9.254;2023-06-14T10:06:29;19.70;99.90
10905;DHT22;5505;51.450;9.254;2023-06-14T10:09:17;19.80;99.90
10905;DHT22;5505;51.450;9.254;2023-06-14T10:12:05;19.90;99.90
10905;DHT22;5505;51.450;9.254;2023-06-14T10:14:53;19.90;99.90
10905;DHT22;5505;51.450;9.254;2023-06-14T10:17:46;20.80;99.90
10905;DHT22;5505;51.450;9.254;2023-06-14T10:20:41;20.00;99.90
10905;DHT22;5505;51.450;9.254;2023-06-14T10:23:32;19.60;99.90
10905;DHT22;5505;51.450;9.254;2023-06-14T10:26:23;19.10;99.90
10905;DHT22;5505;51.450;9.254;2023-06-14T10:29:10;18.80;99.90
10905;DHT22;5505;51.450;9.254;2023-06-14T10:31:59;18.80;99.90
10905;DHT22;5505;51.450;9.254;2023-06-14T10:34:54;18.90;99.90
10905;DHT22;5505;51.450;9.254;2023-06-14T10:37:46;18.90;99.90
10905;DHT22;5505;51.450;9.254;2023-06-14T10:40:34;19.10;99.90
10905;DHT22;5505;51.450;9.254;2023-06-14T10:43:22;19.50;99.90
10905;DHT22;5505;51.450;9.254;2023-06-14T10:46:16;19.60;99.90
10905;DHT22;5505;51.450;9.254;2023-06-14T10:49:04;19.40;99.90
10905;DHT22;5505;51.450;9.254;2023-06-14T10:51:52;19.20;99.90
10905;DHT22;5505;51.450;9.254;2023-06-14T10:54:55;19.30;99.90
10905;DHT22;5505;51.450;9.254;2023-06-14T10:57:44;19.30;99.90
10905;DHT22;5505;51.450;9.254;2023-06-14T11:00:33;19.10;99.90
10905;DHT22;5505;51.450;9.254;2023-06-14T11:03:50;18.90;99.90
10905;DHT22;5505;51.450;9.254;2023-06-14T11:06:46;18.80;99.90
10905;DHT22;5505;51.450;9.254;2023-06-14T11:09:51;18.90;99.90
10905;DHT22;5505;51.450;9.254;2023-06-14T11:12:46;19.20;99.90
10905;DHT22;5505;51.450;9.254;2023-06-14T11:15:35;19.60;99.90
10905;DHT22;5505;51.450;9.254;2023-06-14T11:18:22;20.10;99.90
10905;DHT22;5505;51.450;9.254;2023-06-14T11:21:11;20.40;99.90
10905;DHT22;5505;51.450;9.254;2023-06-14T11:23:58;20.90;99.90
10905;DHT22;5505;51.450;9.254;2023-06-14T11:26:47;21.20;99.90
10905;DHT22;5505;51.450;9.254;2023-06-14T11:29:34;20.80;99.90
10905;DHT22;5505;51.450;9.254;2023-06-14T11:32:21;21.10;99.90
10905;DHT22;5505;51.450;9.254;2023-06-14T11:35:09;20.90;99.80
10905;DHT22;5505;51.450;9.254;2023-06-14T11:37:56;20.80;99.90
10905;DHT22;5505;51.450;9.254;2023-06-14T11:40:43;20.60;99.90
10905;DHT22;5505;51.450;9.254;2023-06-14T11:43:32;20.80;99.90
10905;DHT22;5505;51.450;9.254;2023-06-14T11:46:21;21.00;99.50
10905;DHT22;5505;51.450;9.254;2023-06-14T11:49:10;21.20;99.90
10905;DHT22;5505;51.450;9.254;2023-06-14T11:51:57;21.10;99.80
10905;DHT22;5505;51.450;9.254;2023-06-14T11:54:47;20.90;99.70
10905;DHT22;5505;51.450;9.254;2023-06-14T11:57:34;19.40;99.40
10905;DHT22;5505;51.450;9.254;2023-06-14T12:00:26;20.50;99.50
10905;DHT22;5505;51.450;9.254;2023-06-14T12:03:14;20.80;99.20
10905;DHT22;5505;51.450;9.254;2023-06-14T12:06:05;21.10;98.80
10905;DHT22;5505;51.450;9.254;2023-06-14T12:08:55;21.40;99.90
10905;DHT22;5505;51.450;9.254;2023-06-14T12:11:43;21.60;98.50
10905;DHT22;5505;51.450;9.254;2023-06-14T12:14:30;22.10;98.60
10905;DHT22;5505;51.450;9.254;2023-06-14T12:17:19;22.30;98.70
10905;DHT22;5505;51.450;9.254;2023-06-14T12:20:07;21.70;98.50
10905;DHT22;5505;51.450;9.254;2023-06-14T12:22:59;21.50;98.10
10905;DHT22;5505;51.450;9.254;2023-06-14T12:25:47;21.30;98.60
10905;DHT22;5505;51.450;9.254;2023-06-14T12:28:35;21.20;98.50
10905;DHT22;5505;51.450;9.254;2023-06-14T12:31:23;21.10;98.60
10905;DHT22;5505;51.450;9.254;2023-06-14T12:34:11;21.10;98.70
10905;DHT22;5505;51.450;9.254;2023-06-14T12:36:58;21.10;98.70
10905;DHT22;5505;51.450;9.254;2023-06-14T12:39:45;21.30;98.60
10905;DHT22;5505;51.450;9.254;2023-06-14T12:42:32;21.40;99.00
10905;DHT22;5505;51.450;9.254;2023-06-14T12:45:20;21.50;98.60
10905;DHT22;5505;51.450;9.254;2023-06-14T12:48:09;21.50;98.50
10905;DHT22;5505;51.450;9.254;2023-06-14T12:50:57;21.70;99.10
10905;DHT22;5505;51.450;9.254;2023-06-14T12:53:44;21.70;98.50
10905;DHT22;5505;51.450;9.254;2023-06-14T12:56:31;21.50;98.50
10905;DHT22;5505;51.450;9.254;2023-06-14T12:59:18;21.30;98.20
10905;DHT22;5505;51.450;9.254;2023-06-14T13:02:13;21.30;99.00
10905;DHT22;5505;51.450;9.254;2023-06-14T13:05:00;21.40;98.60
10905;DHT22;5505;51.450;9.254;2023-06-14T13:07:51;21.20;99.10
10905;DHT22;5505;51.450;9.254;2023-06-14T13:10:38;21.20;99.90
10905;DHT22;5505;51.450;9.254;2023-06-14T13:13:25;21.30;99.90
10905;DHT22;5505;51.450;9.254;2023-06-14T13:16:12;21.40;99.20
10905;DHT22;5505;51.450;9.254;2023-06-14T13:19:00;21.50;99.10
10905;DHT22;5505;51.450;9.254;2023-06-14T13:21:48;21.60;99.30
10905;DHT22;5505;51.450;9.254;2023-06-14T13:24:36;21.70;98.70
10905;DHT22;5505;51.450;9.254;2023-06-14T13:27:24;21.80;99.20
10905;DHT22;5505;51.450;9.254;2023-06-14T13:30:11;21.90;99.00
10905;DHT22;5505;51.450;9.254;2023-06-14T13:32:59;21.80;98.70
10905;DHT22;5505;51.450;9.254;2023-06-14T13:35:46;22.00;97.70
10905;DHT22;5505;51.450;9.254;2023-06-14T13:38:34;22.00;98.30
10905;DHT22;5505;51.450;9.254;2023-06-14T13:41:23;22.00;98.70
10905;DHT22;5505;51.450;9.254;2023-06-14T13:44:10;21.80;98.00
10905;DHT22;5505;51.450;9.254;2023-06-14T13:47:00;21.80;98.50
10905;DHT22;5505;51.450;9.254;2023-06-14T13:49:47;21.60;98.40
10905;DHT22;5505;51.450;9.254;2023-06-14T13:52:34;21.50;98.40
10905;DHT22;5505;51.450;9.254;2023-06-14T13:55:21;21.50;98.90
10905;DHT22;5505;51.450;9.254;2023-06-14T13:58:10;21.30;98.80
10905;DHT22;5505;51.450;9.254;2023-06-14T14:00:57;21.20;99.10
10905;DHT22;5505;51.450;9.254;2023-06-14T14:03:45;21.30;98.80
10905;DHT22;5505;51.450;9.254;2023-06-14T14:06:33;21.50;98.10
10905;DHT22;5505;51.450;9.254;2023-06-14T14:09:21;21.50;98.20
10905;DHT22;5505;51.450;9.254;2023-06-14T14:12:08;21.40;98.60
10905;DHT22;5505;51.450;9.254;2023-06-14T14:14:57;21.30;98.40
10905;DHT22;5505;51.450;9.254;2023-06-14T14:17:44;21.20;98.70
10905;DHT22;5505;51.450;9.254;2023-06-14T14:20:31;21.20;99.70
10905;DHT22;5505;51.450;9.254;2023-06-14T14:23:19;21.40;98.80
10905;DHT22;5505;51.450;9.254;2023-06-14T14:26:06;21.50;99.00
10905;DHT22;5505;51.450;9.254;2023-06-14T14:28:54;21.60;99.30
10905;DHT22;5505;51.450;9.254;2023-06-14T14:31:42;21.60;98.80
10905;DHT22;5505;51.450;9.254;2023-06-14T14:34:29;21.50;98.90
10905;DHT22;5505;51.450;9.254;2023-06-14T14:37:17;21.30;98.80
10905;DHT22;5505;51.450;9.254;2023-06-14T14:40:07;21.20;99.50
10905;DHT22;5505;51.450;9.254;2023-06-14T14:42:55;21.20;99.90
10905;DHT22;5505;51.450;9.254;2023-06-14T14:45:42;21.70;99.50
10905;DHT22;5505;51.450;9.254;2023-06-14T14:48:31;21.10;99.90
10905;DHT22;5505;51.450;9.254;2023-06-14T14:51:18;21.10;99.80
10905;DHT22;5505;51.450;9.254;2023-06-14T14:54:05;21.10;99.50
10905;DHT22;5505;51.450;9.254;2023-06-14T14:56:53;21.10;99.50
10905;DHT22;5505;51.450;9.254;2023-06-14T14:59:40;21.00;99.60
10905;DHT22;5505;51.450;9.254;2023-06-14T15:02:27;20.90;99.80
10905;DHT22;5505;51.450;9.254;2023-06-14T15:05:16;21.00;99.90
10905;DHT22;5505;51.450;9.254;2023-06-14T15:08:03;21.30;99.90
10905;DHT22;5505;51.450;9.254;2023-06-14T15:10:51;21.40;99.60
10905;DHT22;5505;51.450;9.254;2023-06-14T15:13:38;21.60;99.40
10905;DHT22;5505;51.450;9.254;2023-06-14T15:16:25;21.80;99.50
10905;DHT22;5505;51.450;9.254;2023-06-14T15:19:12;21.90;98.40
10905;DHT22;5505;51.450;9.254;2023-06-14T15:22:00;22.10;99.40
10905;DHT22;5505;51.450;9.254;2023-06-14T15:24:47;22.30;99.00
10905;DHT22;5505;51.450;9.254;2023-06-14T15:27:34;22.30;99.00
10905;DHT22;5505;51.450;9.254;2023-06-14T15:30:22;22.40;99.30
10905;DHT22;5505;51.450;9.254;2023-06-14T15:33:09;22.60;98.50
10905;DHT22;5505;51.450;9.254;2023-06-14T15:35:56;22.30;98.20
10905;DHT22;5505;51.450;9.254;2023-06-14T15:38:44;22.30;99.10
10905;DHT22;5505;51.450;9.254;2023-06-14T15:41:32;21.30;98.50
10905;DHT22;5505;51.450;9.254;2023-06-14T15:44:19;22.60;98.10
10905;DHT22;5505;51.450;9.254;2023-06-14T15:47:07;22.50;99.40
10905;DHT22;5505;51.450;9.254;2023-06-14T15:49:54;22.00;98.80
10905;DHT22;5505;51.450;9.254;2023-06-14T15:52:41;21.90;99.40
10905;DHT22;5505;51.450;9.254;2023-06-14T15:55:29;22.00;98.90
10905;DHT22;5505;51.450;9.254;2023-06-14T15:58:16;22.30;98.70
10905;DHT22;5505;51.450;9.254;2023-06-14T16:01:03;22.50;98.70
10905;DHT22;5505;51.450;9.254;2023-06-14T16:03:50;22.60;99.00
10905;DHT22;5505;51.450;9.254;2023-06-14T16:06:37;22.50;99.20
10905;DHT22;5505;51.450;9.254;2023-06-14T16:09:25;22.40;98.90
10905;DHT22;5505;51.450;9.254;2023-06-14T16:12:13;22.60;98.80
10905;DHT22;5505;51.450;9.254;2023-06-14T16:15:00;22.70;99.10
10905;DHT22;5505;51.450;9.254;2023-06-14T16:17:47;22.60;99.00
10905;DHT22;5505;51.450;9.254;2023-06-14T16:20:34;22.60;99.00
10905;DHT22;5505;51.450;9.254;2023-06-14T16:23:22;22.70;98.80
10905;DHT22;5505;51.450;9.254;2023-06-14T16:26:10;22.80;99.00
10905;DHT22;5505;51.450;9.254;2023-06-14T16:28:58;22.60;98.70
10905;DHT22;5505;51.450;9.254;2023-06-14T16:31:45;22.30;99.40
10905;DHT22;5505;51.450;9.254;2023-06-14T16:34:32;22.00;99.60
10905;DHT22;5505;51.450;9.254;2023-06-14T16:37:21;21.80;99.90
10905;DHT22;5505;51.450;9.254;2023-06-14T16:40:09;21.70;99.90
10905;DHT22;5505;51.450;9.254;2023-06-14T16:42:56;21.50;99.90
10905;DHT22;5505;51.450;9.254;2023-06-14T16:45:44;21.20;99.90
10905;DHT22;5505;51.450;9.254;2023-06-14T16:48:31;21.00;99.90
10905;DHT22;5505;51.450;9.254;2023-06-14T16:51:18;21.10;99.90
10905;DHT22;5505;51.450;9.254;2023-06-14T16:54:05;21.30;99.90
10905;DHT22;5505;51.450;9.254;2023-06-14T16:56:52;21.40;99.90
10905;DHT22;5505;51.450;9.254;2023-06-14T16:59:39;21.50;99.90
10905;DHT22;5505;51.450;9.254;2023-06-14T17:02:28;21.40;99.90
10905;DHT22;5505;51.450;9.254;2023-06-14T17:05:15;21.20;99.90
10905;DHT22;5505;51.450;9.254;2023-06-14T17:08:03;21.00;99.90
10905;DHT22;5505;51.450;9.254;2023-06-14T17:10:50;20.80;99.90
10905;DHT22;5505;51.450;9.254;2023-06-14T17:13:38;20.70;99.90
10905;DHT22;5505;51.450;9.254;2023-06-14T17:16:25;20.50;99.90
10905;DHT22;5505;51.450;9.254;2023-06-14T17:19:14;20.50;99.90
10905;DHT22;5505;51.450;9.254;2023-06-14T17:22:02;20.40;99.90
10905;DHT22;5505;51.450;9.254;2023-06-14T17:24:49;20.40;99.90
10905;DHT22;5505;51.450;9.254;2023-06-14T17:27:36;20.50;99.90
10905;DHT22;5505;51.450;9.254;2023-06-14T17:30:23;20.80;99.90
10905;DHT22;5505;51.450;9.254;2023-06-14T17:33:10;21.10;99.90
10905;DHT22;5505;51.450;9.254;2023-06-14T17:35:59;21.10;99.90
10905;DHT22;5505;51.450;9.254;2023-06-14T17:38:46;21.00;99.90
10905;DHT22;5505;51.450;9.254;2023-06-14T17:41:33;21.00;99.90
10905;DHT22;5505;51.450;9.254;2023-06-14T17:44:20;21.20;99.90
10905;DHT22;5505;51.450;9.254;2023-06-14T17:47:07;21.10;99.90
10905;DHT22;5505;51.450;9.254;2023-06-14T17:49:55;21.00;99.90
10905;DHT22;5505;51.450;9.254;2023-06-14T17:52:43;21.00;99.90
10905;DHT22;5505;51.450;9.254;2023-06-14T17:55:30;21.00;99.90
10905;DHT22;5505;51.450;9.254;2023-06-14T17:58:19;20.90;99.90